sensor_id;sensor_type;location;lat;lon;timestamp;temperature;humidity
7248;DHT22;3665;51.034;13.642;2024-01-15T00:03:22;0.60;1.00
7248;DHT22;3665;51.034;13.642;2024-01-15T00:08:20;0.70;1.00
7248;DHT22;3665;51.034;13.642;2024-01-15T00:13:04;0.50;1.00
7248;DHT22;3665;51.034;13.642;2024-01-15T00:17:54;0.50;1.00
7248;DHT22;3665;51.034;13.642;2024-01-15T00:22:41;0.50;1.00
7248;DHT22;3665;51.034;13.642;2024-01-15T00:27:28;0.40;1.00
7248;DHT22;3665;51.034;13.642;2024-01-15T00:32:13;0.50;1.00
7248;DHT22;3665;51.034;13.642;2024-01-15T00:36:58;0.50;1.00
7248;DHT22;3665;51.034;13.642;2024-01-15T00:41:55;0.50;1.00
7248;DHT22;3665;51.034;13.642;2024-01-15T00:46:43;0.40;1.00
7248;DHT22;3665;51.034;13.642;2024-01-15T00:51:30;0.40;1.00
7248;DHT22;3665;51.034;13.642;2024-01-15T00:56:15;0.30;1.00
7248;DHT22;3665;51.034;13.642;2024-01-15T01:01:04;0.40;1.00
7248;DHT22;3665;51.034;13.642;2024-01-15T01:05:53;0.50;1.00
7248;DHT22;3665;51.034;13.642;2024-01-15T01:10:40;0.50;1.00
7248;DHT22;3665;51.034;13.642;2024-01-15T01:15:24;0.40;1.00
7248;DHT22;3665;51.034;13.642;2024-01-15T01:20:10;0.30;1.00
7248;DHT22;3665;51.034;13.642;2024-01-15T01:25:05;0.30;1.00
7248;DHT22;3665;51.034;13.642;2024-01-15T01:29:49;0.30;1.00
7248;DHT22;3665;51.034;13.642;2024-01-15T01:34:40;0.30;1.00
7248;DHT22;3665;51.034;13.642;2024-01-15T01:39:26;0.20;1.00
7248;DHT22;3665;51.034;13.642;2024-01-15T01:44:16;0.20;1.00
7248;DHT22;3665;51.034;13.642;2024-01-15T01:49:04;0.20;1.00
7248;DHT22;3665;51.034;13.642;2024-01-15T01:54:04;0.10;1.00
7248;DHT22;3665;51.034;13.642;2024-01-15T01:58:50;0.10;1.00
7248;DHT22;3665;51.034;13.642;2024-01-15T02:03:46;0.20;1.00
7248;DHT22;3665;51.034;13.642;2024-01-15T02:08:33;0.10;1.00
7248;DHT22;3665;51.034;13.642;2024-01-15T02:13:33;0.20;1.00
7248;DHT22;3665;51.034;13.642;2024-01-15T02:18:25;0.10;1.00
7248;DHT22;3665;51.034;13.642;2024-01-15T02:23:32;0.10;1.00
7248;DHT22;3665;51.034;13.642;2024-01-15T02:28:17;0.10;1.00
7248;DHT22;3665;51.034;13.642;2024-01-15T02:33:08;0.00;1.00
7248;DHT22;3665;51.034;13.642;2024-01-15T02:37:53;0.10;1.00
7248;DHT22;3665;51.034;13.642;2024-01-15T02:42:44;0.10;1.00
7248;DHT22;3665;51.034;13.642;2024-01-15T02:47:28;0.10;1.00
7248;DHT22;3665;51.034;13.642;2024-01-15T02:52:14;0.00;1.00
7248;DHT22;3665;51.034;13.642;2024-01-15T02:57:05;-0.20;1.00
7248;DHT22;3665;51.034;13.642;2024-01-15T03:02:14;0.00;1.00
7248;DHT22;3665;51.034;13.642;2024-01-15T03:06:57;0.00;1.00
7248;DHT22;3665;51.034;13.642;2024-01-15T03:11:44;-0.10;1.00
7248;DHT22;3665;51.034;13.642;2024-01-15T03:16:35;-0.20;1.00
7248;DHT22;3665;51.034;13.642;2024-01-15T03:21:22;-0.10;1.00
7248;DHT22;3665;51.034;13.642;2024-01-15T03:26:08;-0.10;1.00
7248;DHT22;3665;51.034;13.642;2024-01-15T03:30:54;-0.10;1.00
7248;DHT22;3665;51.034;13.642;2024-01-15T03:35:38;-0.20;1.00
7248;DHT22;3665;51.034;13.642;2024-01-15T03:40:36;-0.20;1.00
7248;DHT22;3665;51.034;13.642;2024-01-15T03:45:20;-0.10;1.00
7248;DHT22;3665;51.034;13.642;2024-01-15T03:50:05;-0.30;1.00
7248;DHT22;3665;51.034;13.642;2024-01-15T03:54:49;-0.40;1.00
7248;DHT22;3665;51.034;13.642;2024-01-15T03:59:40;-0.30;1.00
7248;DHT22;3665;51.034;13.642;2024-01-15T04:04:35;-0.40;1.00
7248;DHT22;3665;51.034;13.642;2024-01-15T04:09:22;-0.50;1.00
7248;DHT22;3665;51.034;13.642;2024-01-15T04:14:12;-0.50;1.00
7248;DHT22;3665;51.034;13.642;2024-01-15T04:18:57;-0.60;1.00
7248;DHT22;3665;51.034;13.642;2024-01-15T04:23:46;-0.70;1.00
7248;DHT22;3665;51.034;13.642;2024-01-15T04:28:32;-0.60;1.00
7248;DHT22;3665;51.034;13.642;2024-01-15T04:33:23;-0.50;1.00
7248;DHT22;3665;51.034;13.642;2024-01-15T04:38:11;-0.50;1.00
7248;DHT22;3665;51.034;13.642;2024-01-15T04:42:56;-0.70;1.00
7248;DHT22;3665;51.034;13.642;2024-01-15T04:47:45;-0.70;1.00
7248;DHT22;3665;51.034;13.642;2024-01-15T04:52:35;-0.70;1.00
7248;DHT22;3665;51.034;13.642;2024-01-15T04:57:22;-0.90;1.00
7248;DHT22;3665;51.034;13.642;2024-01-15T05:02:06;-0.90;1.00
7248;DHT22;3665;51.034;13.642;2024-01-15T05:06:53;-1.10;1.00
7248;DHT22;3665;51.034;13.642;2024-01-15T05:11:41;-1.10;1.00
7248;DHT22;3665;51.034;13.642;2024-01-15T05:16:33;-1.00;1.00
7248;DHT22;3665;51.034;13.642;2024-01-15T05:21:17;-1.00;1.00
7248;DHT22;3665;51.034;13.642;2024-01-15T05:26:08;-0.90;1.00
7248;DHT22;3665;51.034;13.642;2024-01-15T05:30:58;-0.80;1.00
7248;DHT22;3665;51.034;13.642;2024-01-15T05:35:46;-0.90;1.00
7248;DHT22;3665;51.034;13.642;2024-01-15T05:40:32;-0.90;1.00
7248;DHT22;3665;51.034;13.642;2024-01-15T05:45:26;-1.00;1.00
7248;DHT22;3665;51.034;13.642;2024-01-15T05:50:10;-1.00;1.00
7248;DHT22;3665;51.034;13.642;2024-01-15T05:54:56;-1.00;1.00
7248;DHT22;3665;51.034;13.642;2024-01-15T05:59:40;-0.90;1.00
7248;DHT22;3665;51.034;13.642;2024-01-15T06:04:29;-0.90;1.00
7248;DHT22;3665;51.034;13.642;2024-01-15T06:09:22;-0.90;1.00
7248;DHT22;3665;51.034;13.642;2024-01-15T06:14:08;-0.90;1.00
7248;DHT22;3665;51.034;13.642;2024-01-15T06:18:54;-0.80;1.00
7248;DHT22;3665;51.034;13.642;2024-01-15T06:23:44;-0.80;1.00
7248;DHT22;3665;51.034;13.642;2024-01-15T06:28:33;-0.70;1.00
7248;DHT22;3665;51.034;13.642;2024-01-15T06:33:22;-0.70;1.00
7248;DHT22;3665;51.034;13.642;2024-01-15T06:38:11;-0.70;1.00
7248;DHT22;3665;51.034;13.642;2024-01-15T06:42:57;-0.70;1.00
7248;DHT22;3665;51.034;13.642;2024-01-15T06:47:44;-0.70;1.00
7248;DHT22;3665;51.034;13.642;2024-01-15T06:52:36;-0.70;1.00
7248;DHT22;3665;51.034;13.642;2024-01-15T06:57:20;-0.70;1.00
7248;DHT22;3665;51.034;13.642;2024-01-15T07:02:05;-0.70;1.00
7248;DHT22;3665;51.034;13.642;2024-01-15T07:06:50;-0.80;1.00
7248;DHT22;3665;51.034;13.642;2024-01-15T07:11:45;-0.80;1.00
7248;DHT22;3665;51.034;13.642;2024-01-15T07:16:33;-0.90;1.00
7248;DHT22;3665;51.034;13.642;2024-01-15T07:21:19;-0.90;1.00
7248;DHT22;3665;51.034;13.642;2024-01-15T07:26:04;-0.80;1.00
7248;DHT22;3665;51.034;13.642;2024-01-15T07:31:00;-0.70;1.00
7248;DHT22;3665;51.034;13.642;2024-01-15T07:35:45;-0.70;1.00
7248;DHT22;3665;51.034;13.642;2024-01-15T07:40:30;-0.70;1.00
7248;DHT22;3665;51.034;13.642;2024-01-15T07:45:14;-0.80;1.00
7248;DHT22;3665;51.034;13.642;2024-01-15T07:50:12;-0.80;1.00
7248;DHT22;3665;51.034;13.642;2024-01-15T07:54:56;-0.90;1.00
7248;DHT22;3665;51.034;13.642;2024-01-15T07:59:41;-0.80;1.00
7248;DHT22;3665;51.034;13.642;2024-01-15T08:04:27;-0.80;1.00
7248;DHT22;3665;51.034;13.642;2024-01-15T08:09:23;-0.80;1.00
7248;DHT22;3665;51.034;13.642;2024-01-15T08:14:09;-0.90;1.00
7248;DHT22;3665;51.034;13.642;2024-01-15T08:18:56;-0.90;1.00
7248;DHT22;3665;51.034;13.642;2024-01-15T08:23:40;-0.90;1.00
7248;DHT22;3665;51.034;13.642;2024-01-15T08:28:30;-0.90;1.00
7248;DHT22;3665;51.034;13.642;2024-01-15T08:33:16;-0.90;1.00
7248;DHT22;3665;51.034;13.642;2024-01-15T08:38:13;-0.80;1.00
7248;DHT22;3665;51.034;13.642;2024-01-15T08:42:57;-0.70;1.00
7248;DHT22;3665;51.034;13.642;2024-01-15T08:47:44;-0.70;1.00
7248;DHT22;3665;51.034;13.642;2024-01-15T08:52:34;-0.70;1.00
7248;DHT22;3665;51.034;13.642;2024-01-15T08:57:17;-0.60;1.00
7248;DHT22;3665;51.034;13.642;2024-01-15T09:02:10;-0.60;1.00
7248;DHT22;3665;51.034;13.642;2024-01-15T09:06:57;-0.40;1.00
7248;DHT22;3665;51.034;13.642;2024-01-15T09:11:45;-0.50;1.00
7248;DHT22;3665;51.034;13.642;2024-01-15T09:16:32;-0.40;1.00
7248;DHT22;3665;51.034;13.642;2024-01-15T09:21:23;0.20;1.00
7248;DHT22;3665;51.034;13.642;2024-01-15T09:26:09;0.20;1.00
7248;DHT22;3665;51.034;13.642;2024-01-15T09:30:53;0.30;1.00
7248;DHT22;3665;51.034;13.642;2024-01-15T09:35:40;0.20;1.00
7248;DHT22;3665;51.034;13.642;2024-01-15T09:40:38;0.30;1.00
7248;DHT22;3665;51.034;13.642;2024-01-15T09:45:23;0.60;1.00
7248;DHT22;3665;51.034;13.642;2024-01-15T09:50:07;0.60;1.00
7248;DHT22;3665;51.034;13.642;2024-01-15T09:54:52;0.50;1.00
7248;DHT22;3665;51.034;13.642;2024-01-15T09:59:38;0.80;1.00
7248;DHT22;3665;51.034;13.642;2024-01-15T10:04:28;0.70;1.00
7248;DHT22;3665;51.034;13.642;2024-01-15T10:09:22;0.60;1.00
7248;DHT22;3665;51.034;13.642;2024-01-15T10:14:09;0.40;1.00
7248;DHT22;3665;51.034;13.642;2024-01-15T10:18:57;0.40;1.00
7248;DHT22;3665;51.034;13.642;2024-01-15T10:24:03;0.30;1.00
7248;DHT22;3665;51.034;13.642;2024-01-15T10:28:52;0.60;1.00
7248;DHT22;3665;51.034;13.642;2024-01-15T10:34:16;0.60;1.00
7248;DHT22;3665;51.034;13.642;2024-01-15T10:45:20;0.90;1.00
7248;DHT22;3665;51.034;13.642;2024-01-15T10:50:29;0.70;1.00
7248;DHT22;3665;51.034;13.642;2024-01-15T10:56:37;0.60;1.00
7248;DHT22;3665;51.034;13.642;2024-01-15T11:00:49;0.70;1.00
7248;DHT22;3665;51.034;13.642;2024-01-15T11:05:38;0.70;1.00
7248;DHT22;3665;51.034;13.642;2024-01-15T11:10:48;0.90;1.00
7248;DHT22;3665;51.034;13.642;2024-01-15T11:16:03;0.70;1.00
7248;DHT22;3665;51.034;13.642;2024-01-15T11:21:23;0.90;1.00
7248;DHT22;3665;51.034;13.642;2024-01-15T11:26:47;0.90;1.00
7248;DHT22;3665;51.034;13.642;2024-01-15T11:32:08;0.80;1.00
7248;DHT22;3665;51.034;13.642;2024-01-15T11:43:13;0.90;1.00
7248;DHT22;3665;51.034;13.642;2024-01-15T11:48:18;1.10;1.00
7248;DHT22;3665;51.034;13.642;2024-01-15T11:59:01;1.30;1.00
7248;DHT22;3665;51.034;13.642;2024-01-15T12:04:07;1.20;1.00
7248;DHT22;3665;51.034;13.642;2024-01-15T12:09:20;1.30;1.00
7248;DHT22;3665;51.034;13.642;2024-01-15T12:14:28;1.20;1.00
7248;DHT22;3665;51.034;13.642;2024-01-15T12:19:33;0.90;1.00
7248;DHT22;3665;51.034;13.642;2024-01-15T12:24:41;1.20;1.00
7248;DHT22;3665;51.034;13.642;2024-01-15T12:29:38;1.20;1.00
7248;DHT22;3665;51.034;13.642;2024-01-15T12:34:41;1.10;1.00
7248;DHT22;3665;51.034;13.642;2024-01-15T12:39:35;1.10;1.00
7248;DHT22;3665;51.034;13.642;2024-01-15T12:44:32;1.10;1.00
7248;DHT22;3665;51.034;13.642;2024-01-15T12:49:23;1.00;1.00
7248;DHT22;3665;51.034;13.642;2024-01-15T12:54:07;0.60;1.00
7248;DHT22;3665;51.034;13.642;2024-01-15T12:58:56;0.70;1.00
7248;DHT22;3665;51.034;13.642;2024-01-15T13:03:48;0.70;1.00
7248;DHT22;3665;51.034;13.642;2024-01-15T13:09:11;0.70;1.00
7248;DHT22;3665;51.034;13.642;2024-01-15T13:14:10;0.60;1.00
7248;DHT22;3665;51.034;13.642;2024-01-15T13:19:05;0.60;1.00
7248;DHT22;3665;51.034;13.642;2024-01-15T13:24:24;0.60;1.00
7248;DHT22;3665;51.034;13.642;2024-01-15T13:29:22;0.70;1.00
7248;DHT22;3665;51.034;13.642;2024-01-15T13:34:48;0.70;1.00
7248;DHT22;3665;51.034;13.642;2024-01-15T13:40:25;0.60;1.00
7248;DHT22;3665;51.034;13.642;2024-01-15T13:45:36;0.40;1.00
7248;DHT22;3665;51.034;13.642;2024-01-15T13:56:37;0.20;1.00
7248;DHT22;3665;51.034;13.642;2024-01-15T14:01:24;-0.10;1.00
7248;DHT22;3665;51.034;13.642;2024-01-15T14:12:08;-0.30;18.70
7248;DHT22;3665;51.034;13.642;2024-01-15T14:17:38;-0.20;2.00
7248;DHT22;3665;51.034;13.642;2024-01-15T14:22:26;-0.30;30.60
7248;DHT22;3665;51.034;13.642;2024-01-15T14:27:18;-0.30;99.90
7248;DHT22;3665;51.034;13.642;2024-01-15T14:32:34;-0.40;95.00
7248;DHT22;3665;51.034;13.642;2024-01-15T14:37:43;-0.50;99.90
7248;DHT22;3665;51.034;13.642;2024-01-15T14:43:04;-0.50;99.90
7248;DHT22;3665;51.034;13.642;2024-01-15T14:48:21;-0.60;1.00
7248;DHT22;3665;51.034;13.642;2024-01-15T14:53:58;-0.60;1.00
7248;DHT22;3665;51.034;13.642;2024-01-15T14:59:21;-0.70;1.00
7248;DHT22;3665;51.034;13.642;2024-01-15T15:04:35;-0.70;1.00
7248;DHT22;3665;51.034;13.642;2024-01-15T15:09:42;-0.60;1.00
7248;DHT22;3665;51.034;13.642;2024-01-15T15:14:49;-0.80;1.00
7248;DHT22;3665;51.034;13.642;2024-01-15T15:19:53;-0.80;1.00
7248;DHT22;3665;51.034;13.642;2024-01-15T15:25:44;-0.80;99.90
7248;DHT22;3665;51.034;13.642;2024-01-15T15:30:48;-0.70;99.90
7248;DHT22;3665;51.034;13.642;2024-01-15T15:36:00;-0.70;99.90
7248;DHT22;3665;51.034;13.642;2024-01-15T15:41:09;-0.60;99.90
7248;DHT22;3665;51.034;13.642;2024-01-15T15:46:02;-0.50;99.90
7248;DHT22;3665;51.034;13.642;2024-01-15T15:50:50;-0.50;99.90
7248;DHT22;3665;51.034;13.642;2024-01-15T15:55:41;-0.50;99.90
7248;DHT22;3665;51.034;13.642;2024-01-15T16:00:27;-0.70;93.50
7248;DHT22;3665;51.034;13.642;2024-01-15T16:06:09;-0.60;88.20
7248;DHT22;3665;51.034;13.642;2024-01-15T16:11:16;-0.60;99.90
7248;DHT22;3665;51.034;13.642;2024-01-15T16:16:53;-0.70;99.90
7248;DHT22;3665;51.034;13.642;2024-01-15T16:22:15;-0.60;99.90
7248;DHT22;3665;51.034;13.642;2024-01-15T16:28:08;-0.70;99.90
7248;DHT22;3665;51.034;13.642;2024-01-15T16:33:07;-0.70;84.80
7248;DHT22;3665;51.034;13.642;2024-01-15T16:37:57;-0.70;99.90
7248;DHT22;3665;51.034;13.642;2024-01-15T16:42:50;-0.70;94.80
7248;DHT22;3665;51.034;13.642;2024-01-15T16:47:44;-0.50;99.90
7248;DHT22;3665;51.034;13.642;2024-01-15T16:52:42;-0.60;99.90
7248;DHT22;3665;51.034;13.642;2024-01-15T16:58:16;-0.60;99.90
7248;DHT22;3665;51.034;13.642;2024-01-15T17:03:25;-0.70;99.90
7248;DHT22;3665;51.034;13.642;2024-01-15T17:08:37;-0.70;99.90
7248;DHT22;3665;51.034;13.642;2024-01-15T17:13:29;-0.70;99.90
7248;DHT22;3665;51.034;13.642;2024-01-15T17:18:34;-0.60;99.90
7248;DHT22;3665;51.034;13.642;2024-01-15T17:23:36;-0.50;99.90
7248;DHT22;3665;51.034;13.642;2024-01-15T17:28:40;-0.50;61.40
7248;DHT22;3665;51.034;13.642;2024-01-15T17:33:30;-0.50;16.30
7248;DHT22;3665;51.034;13.642;2024-01-15T17:38:14;-0.60;10.00
7248;DHT22;3665;51.034;13.642;2024-01-15T17:43:20;-0.60;6.70
7248;DHT22;3665;51.034;13.642;2024-01-15T17:48:10;-0.60;8.10
7248;DHT22;3665;51.034;13.642;2024-01-15T17:52:58;-0.60;43.90
7248;DHT22;3665;51.034;13.642;2024-01-15T17:58:02;-0.70;99.90
7248;DHT22;3665;51.034;13.642;2024-01-15T18:03:03;-0.60;99.90
7248;DHT22;3665;51.034;13.642;2024-01-15T18:07:54;-0.50;99.90
7248;DHT22;3665;51.034;13.642;2024-01-15T18:12:38;-0.50;99.90
7248;DHT22;3665;51.034;13.642;2024-01-15T18:17:23;-0.50;99.90
7248;DHT22;3665;51.034;13.642;2024-01-15T18:22:09;-0.50;99.90
7248;DHT22;3665;51.034;13.642;2024-01-15T18:26:58;-0.50;99.90
7248;DHT22;3665;51.034;13.642;2024-01-15T18:31:45;-0.60;99.90
7248;DHT22;3665;51.034;13.642;2024-01-15T18:36:29;-0.60;99.90
7248;DHT22;3665;51.034;13.642;2024-01-15T18:41:26;-0.50;99.90
7248;DHT22;3665;51.034;13.642;2024-01-15T18:46:14;-0.40;99.90
7248;DHT22;3665;51.034;13.642;2024-01-15T18:51:02;-0.30;99.90
7248;DHT22;3665;51.034;13.642;2024-01-15T18:55:51;-0.40;1.00
7248;DHT22;3665;51.034;13.642;2024-01-15T19:00:38;-0.40;1.00
7248;DHT22;3665;51.034;13.642;2024-01-15T19:11:06;-0.50;1.00
7248;DHT22;3665;51.034;13.642;2024-01-15T19:15:49;-0.40;1.00
7248;DHT22;3665;51.034;13.642;2024-01-15T19:20:47;-0.40;99.90
7248;DHT22;3665;51.034;13.642;2024-01-15T19:26:22;-0.50;1.00
7248;DHT22;3665;51.034;13.642;2024-01-15T19:31:17;-0.40;1.00
7248;DHT22;3665;51.034;13.642;2024-01-15T19:36:06;-0.50;1.00
7248;DHT22;3665;51.034;13.642;2024-01-15T19:40:55;-0.60;99.90
7248;DHT22;3665;51.034;13.642;2024-01-15T19:45:42;-0.50;1.00
7248;DHT22;3665;51.034;13.642;2024-01-15T19:50:33;-0.50;99.90
7248;DHT22;3665;51.034;13.642;2024-01-15T19:55:17;-0.60;99.90
7248;DHT22;3665;51.034;13.642;2024-01-15T20:00:10;-0.50;1.00
7248;DHT22;3665;51.034;13.642;2024-01-15T20:05:30;-0.60;1.00
7248;DHT22;3665;51.034;13.642;2024-01-15T20:10:14;-0.60;1.00
7248;DHT22;3665;51.034;13.642;2024-01-15T20:15:01;-0.50;99.90
7248;DHT22;3665;51.034;13.642;2024-01-15T20:20:07;-0.50;99.90
7248;DHT22;3665;51.034;13.642;2024-01-15T20:30:54;-0.50;99.90
7248;DHT22;3665;51.034;13.642;2024-01-15T20:36:25;-0.50;1.00
7248;DHT22;3665;51.034;13.642;2024-01-15T20:41:12;-0.60;1.00
7248;DHT22;3665;51.034;13.642;2024-01-15T20:45:58;-0.60;1.00
7248;DHT22;3665;51.034;13.642;2024-01-15T20:50:47;-0.60;1.00
7248;DHT22;3665;51.034;13.642;2024-01-15T20:55:41;-0.50;1.00
7248;DHT22;3665;51.034;13.642;2024-01-15T21:00:43;-0.50;79.20
7248;DHT22;3665;51.034;13.642;2024-01-15T21:05:46;-0.60;1.00
7248;DHT22;3665;51.034;13.642;2024-01-15T21:10:48;-0.60;1.00
7248;DHT22;3665;51.034;13.642;2024-01-15T21:15:34;-0.60;1.00
7248;DHT22;3665;51.034;13.642;2024-01-15T21:20:25;-0.60;1.00
7248;DHT22;3665;51.034;13.642;2024-01-15T21:25:46;-0.60;1.00
7248;DHT22;3665;51.034;13.642;2024-01-15T21:30:52;-0.40;1.00
7248;DHT22;3665;51.034;13.642;2024-01-15T21:35:54;-0.40;1.00
7248;DHT22;3665;51.034;13.642;2024-01-15T21:40:40;-0.40;99.90
7248;DHT22;3665;51.034;13.642;2024-01-15T21:45:59;-0.20;1.00
7248;DHT22;3665;51.034;13.642;2024-01-15T21:50:45;-0.40;1.00
7248;DHT22;3665;51.034;13.642;2024-01-15T21:55:34;-0.40;1.00
7248;DHT22;3665;51.034;13.642;2024-01-15T22:00:27;-0.30;99.90
7248;DHT22;3665;51.034;13.642;2024-01-15T22:05:14;-0.40;99.90
7248;DHT22;3665;51.034;13.642;2024-01-15T22:09:57;-0.20;99.90
7248;DHT22;3665;51.034;13.642;2024-01-15T22:14:45;-0.40;99.90
7248;DHT22;3665;51.034;13.642;2024-01-15T22:19:35;-0.50;1.00
7248;DHT22;3665;51.034;13.642;2024-01-15T22:24:25;-0.30;1.00
7248;DHT22;3665;51.034;13.642;2024-01-15T22:29:09;-0.30;99.90
7248;DHT22;3665;51.034;13.642;2024-01-15T22:34:07;-0.40;31.30
7248;DHT22;3665;51.034;13.642;2024-01-15T22:39:21;-0.50;1.00
7248;DHT22;3665;51.034;13.642;2024-01-15T22:50:17;-0.60;1.00
7248;DHT22;3665;51.034;13.642;2024-01-15T22:55:04;-0.60;1.00
7248;DHT22;3665;51.034;13.642;2024-01-15T23:00:42;-0.60;1.00
7248;DHT22;3665;51.034;13.642;2024-01-15T23:05:31;-0.60;1.00
7248;DHT22;3665;51.034;13.642;2024-01-15T23:10:15;-0.50;1.00
7248;DHT22;3665;51.034;13.642;2024-01-15T23:15:05;-0.50;1.00
7248;DHT22;3665;51.034;13.642;2024-01-15T23:20:01;-0.50;99.90
7248;DHT22;3665;51.034;13.642;2024-01-15T23:25:59;-0.40;99.90
7248;DHT22;3665;51.034;13.642;2024-01-15T23:31:34;-0.40;97.10
7248;DHT22;3665;51.034;13.642;2024-01-15T23:36:49;-0.50;76.20
7248;DHT22;3665;51.034;13.642;2024-01-15T23:41:57;-0.30;44.70
7248;DHT22;3665;51.034;13.642;2024-01-15T23:47:13;-0.40;45.90
7248;DHT22;3665;51.034;13.642;2024-01-15T23:52:18;-0.40;31.70
7248;DHT22;3665;51.034;13.642;2024-01-15T23:57:46;-0.40;29.90
